sensor_id;sensor_type;location;lat;lon;timestamp;P1;durP1;ratioP1;P2;durP2;ratioP2
77513;SDS011;66626;48.872;9.084;2023-03-16T00:00:40;10.90;;;5.43;;
77513;SDS011;66626;48.872;9.084;2023-03-16T00:03:07;10.70;;;5.85;;
77513;SDS011;66626;48.872;9.084;2023-03-16T00:05:32;11.88;;;6.47;;
77513;SDS011;66626;48.872;9.084;2023-03-16T00:07:58;13.50;;;6.55;;
77513;SDS011;66626;48.872;9.084;2023-03-16T00:10:23;11.27;;;6.57;;
77513;SDS011;66626;48.872;9.084;2023-03-16T00:12:51;14.55;;;6.70;;
77513;SDS011;66626;48.872;9.084;2023-03-16T00:15:17;12.02;;;5.75;;
77513;SDS011;66626;48.872;9.084;2023-03-16T00:17:43;10.20;;;5.63;;
77513;SDS011;66626;48.872;9.084;2023-03-16T00:20:12;11.73;;;5.85;;
77513;SDS011;66626;48.872;9.084;2023-03-16T00:22:38;14.07;;;6.05;;
77513;SDS011;66626;48.872;9.084;2023-03-16T00:25:03;10.73;;;5.57;;
77513;SDS011;66626;48.872;9.084;2023-03-16T00:27:29;13.10;;;6.80;;
77513;SDS011;66626;48.872;9.084;2023-03-16T00:29:54;18.30;;;8.45;;
77513;SDS011;66626;48.872;9.084;2023-03-16T00:32:24;16.30;;;7.35;;
77513;SDS011;66626;48.872;9.084;2023-03-16T00:34:54;13.68;;;7.50;;
77513;SDS011;66626;48.872;9.084;2023-03-16T00:37:20;15.55;;;7.32;;
77513;SDS011;66626;48.872;9.084;2023-03-16T00:39:47;17.65;;;8.18;;
77513;SDS011;66626;48.872;9.084;2023-03-16T00:42:13;16.65;;;8.45;;
77513;SDS011;66626;48.872;9.084;2023-03-16T00:44:39;17.33;;;8.82;;
77513;SDS011;66626;48.872;9.084;2023-03-16T00:47:08;15.48;;;7.38;;
77513;SDS011;66626;48.872;9.084;2023-03-16T00:49:34;12.50;;;7.65;;
77513;SDS011;66626;48.872;9.084;2023-03-16T00:52:03;16.48;;;7.47;;
77513;SDS011;66626;48.872;9.084;2023-03-16T00:54:29;15.52;;;8.35;;
77513;SDS011;66626;48.872;9.084;2023-03-16T00:56:57;16.88;;;9.07;;
77513;SDS011;66626;48.872;9.084;2023-03-16T00:59:27;14.50;;;7.20;;
77513;SDS011;66626;48.872;9.084;2023-03-16T01:01:53;19.52;;;8.23;;
77513;SDS011;66626;48.872;9.084;2023-03-16T01:04:19;16.35;;;8.80;;
77513;SDS011;66626;48.872;9.084;2023-03-16T01:06:45;15.30;;;7.47;;
77513;SDS011;66626;48.872;9.084;2023-03-16T01:09:10;13.60;;;8.18;;
77513;SDS011;66626;48.872;9.084;2023-03-16T01:11:36;17.35;;;8.43;;
77513;SDS011;66626;48.872;9.084;2023-03-16T01:14:02;20.92;;;9.32;;
77513;SDS011;66626;48.872;9.084;2023-03-16T01:16:27;14.73;;;8.55;;
77513;SDS011;66626;48.872;9.084;2023-03-16T01:18:53;16.90;;;8.20;;
77513;SDS011;66626;48.872;9.084;2023-03-16T01:21:19;13.27;;;8.40;;
77513;SDS011;66626;48.872;9.084;2023-03-16T01:23:45;18.27;;;8.10;;
77513;SDS011;66626;48.872;9.084;2023-03-16T01:26:11;19.15;;;9.23;;
77513;SDS011;66626;48.872;9.084;2023-03-16T01:28:36;20.35;;;8.10;;
77513;SDS011;66626;48.872;9.084;2023-03-16T01:31:07;18.52;;;8.98;;
77513;SDS011;66626;48.872;9.084;2023-03-16T01:33:34;17.83;;;7.85;;
77513;SDS011;66626;48.872;9.084;2023-03-16T01:36:04;12.68;;;7.25;;
77513;SDS011;66626;48.872;9.084;2023-03-16T01:38:31;17.83;;;8.77;;
77513;SDS011;66626;48.872;9.084;2023-03-16T01:40:57;20.83;;;10.13;;
77513;SDS011;66626;48.872;9.084;2023-03-16T01:43:24;19.02;;;9.48;;
77513;SDS011;66626;48.872;9.084;2023-03-16T01:48:29;15.50;;;8.05;;
77513;SDS011;66626;48.872;9.084;2023-03-16T01:51:01;15.77;;;8.13;;
77513;SDS011;66626;48.872;9.084;2023-03-16T01:53:28;16.85;;;8.15;;
77513;SDS011;66626;48.872;9.084;2023-03-16T01:55:53;15.38;;;8.48;;
77513;SDS011;66626;48.872;9.084;2023-03-16T01:58:19;14.75;;;6.82;;
77513;SDS011;66626;48.872;9.084;2023-03-16T02:00:45;17.40;;;8.55;;
77513;SDS011;66626;48.872;9.084;2023-03-16T02:03:12;13.73;;;7.57;;
77513;SDS011;66626;48.872;9.084;2023-03-16T02:08:18;14.48;;;8.20;;
77513;SDS011;66626;48.872;9.084;2023-03-16T02:10:44;16.30;;;8.70;;
77513;SDS011;66626;48.872;9.084;2023-03-16T02:13:10;15.45;;;7.03;;
77513;SDS011;66626;48.872;9.084;2023-03-16T02:15:36;18.65;;;8.55;;
77513;SDS011;66626;48.872;9.084;2023-03-16T02:18:01;17.17;;;9.10;;
77513;SDS011;66626;48.872;9.084;2023-03-16T02:23:15;13.82;;;7.63;;
77513;SDS011;66626;48.872;9.084;2023-03-16T02:25:52;19.15;;;9.63;;
77513;SDS011;66626;48.872;9.084;2023-03-16T02:30:56;15.10;;;7.40;;
77513;SDS011;66626;48.872;9.084;2023-03-16T02:33:21;16.02;;;8.52;;
77513;SDS011;66626;48.872;9.084;2023-03-16T02:35:47;17.98;;;8.93;;
77513;SDS011;66626;48.872;9.084;2023-03-16T02:38:12;15.32;;;7.22;;
77513;SDS011;66626;48.872;9.084;2023-03-16T02:40:38;19.70;;;8.02;;
77513;SDS011;66626;48.872;9.084;2023-03-16T02:43:08;16.38;;;8.27;;
77513;SDS011;66626;48.872;9.084;2023-03-16T02:45:40;17.40;;;8.02;;
77513;SDS011;66626;48.872;9.084;2023-03-16T02:48:16;69.00;;;28.80;;
77513;SDS011;66626;48.872;9.084;2023-03-16T02:50:46;24.15;;;12.48;;
77513;SDS011;66626;48.872;9.084;2023-03-16T02:53:13;17.15;;;7.82;;
77513;SDS011;66626;48.872;9.084;2023-03-16T02:55:39;17.52;;;6.65;;
77513;SDS011;66626;48.872;9.084;2023-03-16T02:58:04;12.05;;;7.47;;
77513;SDS011;66626;48.872;9.084;2023-03-16T03:00:30;14.02;;;7.40;;
77513;SDS011;66626;48.872;9.084;2023-03-16T03:02:56;12.35;;;7.35;;
77513;SDS011;66626;48.872;9.084;2023-03-16T03:05:22;18.67;;;7.88;;
77513;SDS011;66626;48.872;9.084;2023-03-16T03:07:47;17.73;;;8.50;;
77513;SDS011;66626;48.872;9.084;2023-03-16T03:10:12;16.60;;;7.85;;
77513;SDS011;66626;48.872;9.084;2023-03-16T03:12:38;15.88;;;7.07;;
77513;SDS011;66626;48.872;9.084;2023-03-16T03:15:03;19.63;;;7.90;;
77513;SDS011;66626;48.872;9.084;2023-03-16T03:17:29;16.17;;;7.97;;
77513;SDS011;66626;48.872;9.084;2023-03-16T03:19:55;16.05;;;7.60;;
77513;SDS011;66626;48.872;9.084;2023-03-16T03:22:21;16.30;;;8.25;;
77513;SDS011;66626;48.872;9.084;2023-03-16T03:24:47;13.68;;;7.32;;
77513;SDS011;66626;48.872;9.084;2023-03-16T03:27:12;15.35;;;7.38;;
77513;SDS011;66626;48.872;9.084;2023-03-16T03:29:37;15.00;;;8.68;;
77513;SDS011;66626;48.872;9.084;2023-03-16T03:32:03;17.00;;;8.27;;
77513;SDS011;66626;48.872;9.084;2023-03-16T03:34:29;19.70;;;8.80;;
77513;SDS011;66626;48.872;9.084;2023-03-16T03:36:55;20.90;;;9.13;;
77513;SDS011;66626;48.872;9.084;2023-03-16T03:39:21;17.75;;;8.38;;
77513;SDS011;66626;48.872;9.084;2023-03-16T03:41:46;17.38;;;8.68;;
77513;SDS011;66626;48.872;9.084;2023-03-16T03:44:11;15.07;;;8.25;;
77513;SDS011;66626;48.872;9.084;2023-03-16T03:46:37;19.48;;;9.70;;
77513;SDS011;66626;48.872;9.084;2023-03-16T03:49:02;16.42;;;8.20;;
77513;SDS011;66626;48.872;9.084;2023-03-16T03:51:29;15.95;;;8.88;;
77513;SDS011;66626;48.872;9.084;2023-03-16T03:53:57;21.13;;;9.63;;
77513;SDS011;66626;48.872;9.084;2023-03-16T03:56:23;17.67;;;8.30;;
77513;SDS011;66626;48.872;9.084;2023-03-16T03:58:48;23.80;;;10.07;;
77513;SDS011;66626;48.872;9.084;2023-03-16T04:01:13;18.48;;;9.50;;
77513;SDS011;66626;48.872;9.084;2023-03-16T04:03:39;14.65;;;8.85;;
77513;SDS011;66626;48.872;9.084;2023-03-16T04:06:04;18.25;;;8.43;;
77513;SDS011;66626;48.872;9.084;2023-03-16T04:08:32;16.63;;;8.88;;
77513;SDS011;66626;48.872;9.084;2023-03-16T04:10:57;14.85;;;7.07;;
77513;SDS011;66626;48.872;9.084;2023-03-16T04:13:22;16.00;;;8.88;;
77513;SDS011;66626;48.872;9.084;2023-03-16T04:15:48;17.45;;;7.60;;
77513;SDS011;66626;48.872;9.084;2023-03-16T04:18:13;13.98;;;7.60;;
77513;SDS011;66626;48.872;9.084;2023-03-16T04:20:38;16.80;;;7.93;;
77513;SDS011;66626;48.872;9.084;2023-03-16T04:23:04;18.67;;;8.88;;
77513;SDS011;66626;48.872;9.084;2023-03-16T04:25:29;13.25;;;7.30;;
77513;SDS011;66626;48.872;9.084;2023-03-16T04:27:55;18.58;;;8.30;;
77513;SDS011;66626;48.872;9.084;2023-03-16T04:30:20;17.35;;;8.00;;
77513;SDS011;66626;48.872;9.084;2023-03-16T04:32:47;14.82;;;7.70;;
77513;SDS011;66626;48.872;9.084;2023-03-16T04:35:13;12.93;;;6.88;;
77513;SDS011;66626;48.872;9.084;2023-03-16T04:37:39;22.10;;;8.32;;
77513;SDS011;66626;48.872;9.084;2023-03-16T04:40:05;21.60;;;10.07;;
77513;SDS011;66626;48.872;9.084;2023-03-16T04:42:40;17.00;;;7.78;;
77513;SDS011;66626;48.872;9.084;2023-03-16T04:45:06;16.42;;;7.72;;
77513;SDS011;66626;48.872;9.084;2023-03-16T04:47:32;14.43;;;7.15;;
77513;SDS011;66626;48.872;9.084;2023-03-16T04:50:00;15.80;;;7.82;;
77513;SDS011;66626;48.872;9.084;2023-03-16T04:52:26;16.38;;;8.15;;
77513;SDS011;66626;48.872;9.084;2023-03-16T04:54:52;15.20;;;8.68;;
77513;SDS011;66626;48.872;9.084;2023-03-16T04:57:17;20.02;;;10.05;;
77513;SDS011;66626;48.872;9.084;2023-03-16T04:59:43;17.88;;;7.90;;
77513;SDS011;66626;48.872;9.084;2023-03-16T05:02:09;16.35;;;8.25;;
77513;SDS011;66626;48.872;9.084;2023-03-16T05:04:34;14.77;;;8.40;;
77513;SDS011;66626;48.872;9.084;2023-03-16T05:06:59;14.80;;;7.90;;
77513;SDS011;66626;48.872;9.084;2023-03-16T05:09:24;15.95;;;7.75;;
77513;SDS011;66626;48.872;9.084;2023-03-16T05:11:50;17.52;;;8.18;;
77513;SDS011;66626;48.872;9.084;2023-03-16T05:14:15;18.50;;;7.85;;
77513;SDS011;66626;48.872;9.084;2023-03-16T05:16:40;15.05;;;7.93;;
77513;SDS011;66626;48.872;9.084;2023-03-16T05:19:06;17.13;;;7.68;;
77513;SDS011;66626;48.872;9.084;2023-03-16T05:21:31;18.75;;;8.10;;
77513;SDS011;66626;48.872;9.084;2023-03-16T05:23:58;14.70;;;7.63;;
77513;SDS011;66626;48.872;9.084;2023-03-16T05:26:23;17.85;;;8.23;;
77513;SDS011;66626;48.872;9.084;2023-03-16T05:28:51;24.48;;;9.40;;
77513;SDS011;66626;48.872;9.084;2023-03-16T05:31:18;15.90;;;8.13;;
77513;SDS011;66626;48.872;9.084;2023-03-16T05:33:43;18.52;;;9.30;;
77513;SDS011;66626;48.872;9.084;2023-03-16T05:36:09;14.95;;;8.63;;
77513;SDS011;66626;48.872;9.084;2023-03-16T05:38:34;14.20;;;8.48;;
77513;SDS011;66626;48.872;9.084;2023-03-16T05:41:00;16.55;;;9.55;;
77513;SDS011;66626;48.872;9.084;2023-03-16T05:43:28;20.60;;;9.27;;
77513;SDS011;66626;48.872;9.084;2023-03-16T05:45:54;20.85;;;10.50;;
77513;SDS011;66626;48.872;9.084;2023-03-16T05:48:20;17.38;;;9.55;;
77513;SDS011;66626;48.872;9.084;2023-03-16T05:50:45;17.02;;;8.68;;
77513;SDS011;66626;48.872;9.084;2023-03-16T05:53:11;18.95;;;8.15;;
77513;SDS011;66626;48.872;9.084;2023-03-16T05:55:37;22.15;;;9.20;;
77513;SDS011;66626;48.872;9.084;2023-03-16T05:58:03;16.83;;;9.30;;
77513;SDS011;66626;48.872;9.084;2023-03-16T06:00:28;16.52;;;8.27;;
77513;SDS011;66626;48.872;9.084;2023-03-16T06:02:53;18.65;;;8.30;;
77513;SDS011;66626;48.872;9.084;2023-03-16T06:05:19;18.23;;;9.30;;
77513;SDS011;66626;48.872;9.084;2023-03-16T06:07:49;20.38;;;9.57;;
77513;SDS011;66626;48.872;9.084;2023-03-16T06:10:15;15.43;;;7.32;;
77513;SDS011;66626;48.872;9.084;2023-03-16T06:12:40;16.45;;;8.35;;
77513;SDS011;66626;48.872;9.084;2023-03-16T06:15:06;19.17;;;8.63;;
77513;SDS011;66626;48.872;9.084;2023-03-16T06:17:33;15.70;;;7.82;;
77513;SDS011;66626;48.872;9.084;2023-03-16T06:20:02;18.33;;;9.55;;
77513;SDS011;66626;48.872;9.084;2023-03-16T06:22:33;20.90;;;9.02;;
77513;SDS011;66626;48.872;9.084;2023-03-16T06:24:59;15.65;;;7.13;;
77513;SDS011;66626;48.872;9.084;2023-03-16T06:27:24;19.13;;;9.82;;
77513;SDS011;66626;48.872;9.084;2023-03-16T06:29:50;20.67;;;10.40;;
77513;SDS011;66626;48.872;9.084;2023-03-16T06:32:15;20.17;;;9.60;;
77513;SDS011;66626;48.872;9.084;2023-03-16T06:34:41;21.45;;;8.98;;
77513;SDS011;66626;48.872;9.084;2023-03-16T06:37:06;19.95;;;9.02;;
77513;SDS011;66626;48.872;9.084;2023-03-16T06:39:31;20.77;;;9.55;;
77513;SDS011;66626;48.872;9.084;2023-03-16T06:41:57;20.60;;;9.70;;
77513;SDS011;66626;48.872;9.084;2023-03-16T06:44:22;21.90;;;9.65;;
77513;SDS011;66626;48.872;9.084;2023-03-16T06:46:48;18.23;;;9.48;;
77513;SDS011;66626;48.872;9.084;2023-03-16T06:49:13;18.73;;;8.88;;
77513;SDS011;66626;48.872;9.084;2023-03-16T06:51:38;20.25;;;9.35;;
77513;SDS011;66626;48.872;9.084;2023-03-16T06:54:04;17.25;;;8.68;;
77513;SDS011;66626;48.872;9.084;2023-03-16T06:56:29;22.98;;;9.10;;
77513;SDS011;66626;48.872;9.084;2023-03-16T06:58:55;21.05;;;9.57;;
77513;SDS011;66626;48.872;9.084;2023-03-16T07:01:21;21.00;;;10.48;;
77513;SDS011;66626;48.872;9.084;2023-03-16T07:03:46;19.05;;;10.27;;
77513;SDS011;66626;48.872;9.084;2023-03-16T07:06:12;21.40;;;10.80;;
77513;SDS011;66626;48.872;9.084;2023-03-16T07:08:37;20.05;;;9.82;;
77513;SDS011;66626;48.872;9.084;2023-03-16T07:11:03;20.23;;;10.40;;
77513;SDS011;66626;48.872;9.084;2023-03-16T07:13:29;22.85;;;10.48;;
77513;SDS011;66626;48.872;9.084;2023-03-16T07:15:54;24.92;;;12.02;;
77513;SDS011;66626;48.872;9.084;2023-03-16T07:18:19;19.35;;;10.90;;
77513;SDS011;66626;48.872;9.084;2023-03-16T07:20:45;17.23;;;8.85;;
77513;SDS011;66626;48.872;9.084;2023-03-16T07:23:11;25.63;;;10.57;;
77513;SDS011;66626;48.872;9.084;2023-03-16T07:25:37;20.60;;;11.05;;
77513;SDS011;66626;48.872;9.084;2023-03-16T07:28:03;17.20;;;9.77;;
77513;SDS011;66626;48.872;9.084;2023-03-16T07:30:29;21.58;;;10.50;;
77513;SDS011;66626;48.872;9.084;2023-03-16T07:32:55;18.52;;;9.93;;
77513;SDS011;66626;48.872;9.084;2023-03-16T07:35:20;15.82;;;9.48;;
77513;SDS011;66626;48.872;9.084;2023-03-16T07:37:46;21.70;;;10.57;;
77513;SDS011;66626;48.872;9.084;2023-03-16T07:40:11;19.75;;;8.57;;
77513;SDS011;66626;48.872;9.084;2023-03-16T07:42:38;17.23;;;8.32;;
77513;SDS011;66626;48.872;9.084;2023-03-16T07:45:04;13.65;;;7.68;;
77513;SDS011;66626;48.872;9.084;2023-03-16T07:47:30;16.02;;;8.48;;
77513;SDS011;66626;48.872;9.084;2023-03-16T07:49:55;19.30;;;8.77;;
77513;SDS011;66626;48.872;9.084;2023-03-16T07:52:21;15.38;;;8.13;;
77513;SDS011;66626;48.872;9.084;2023-03-16T07:54:46;17.00;;;7.85;;
77513;SDS011;66626;48.872;9.084;2023-03-16T07:57:12;12.80;;;7.63;;
77513;SDS011;66626;48.872;9.084;2023-03-16T07:59:38;14.98;;;7.70;;
77513;SDS011;66626;48.872;9.084;2023-03-16T08:02:03;13.95;;;7.38;;
77513;SDS011;66626;48.872;9.084;2023-03-16T08:04:28;16.67;;;7.95;;
77513;SDS011;66626;48.872;9.084;2023-03-16T08:06:54;17.10;;;8.23;;
77513;SDS011;66626;48.872;9.084;2023-03-16T08:09:24;14.65;;;7.80;;
77513;SDS011;66626;48.872;9.084;2023-03-16T08:11:50;16.05;;;8.45;;
77513;SDS011;66626;48.872;9.084;2023-03-16T08:14:15;10.93;;;6.40;;
77513;SDS011;66626;48.872;9.084;2023-03-16T08:16:40;14.82;;;6.53;;
77513;SDS011;66626;48.872;9.084;2023-03-16T08:19:06;15.68;;;7.15;;
77513;SDS011;66626;48.872;9.084;2023-03-16T08:21:31;12.80;;;5.43;;
77513;SDS011;66626;48.872;9.084;2023-03-16T08:23:57;13.95;;;6.88;;
77513;SDS011;66626;48.872;9.084;2023-03-16T08:26:22;14.07;;;7.07;;
77513;SDS011;66626;48.872;9.084;2023-03-16T08:28:49;14.75;;;6.90;;
77513;SDS011;66626;48.872;9.084;2023-03-16T08:31:16;11.95;;;6.07;;
77513;SDS011;66626;48.872;9.084;2023-03-16T08:33:41;12.98;;;6.43;;
77513;SDS011;66626;48.872;9.084;2023-03-16T08:36:09;14.45;;;7.32;;
77513;SDS011;66626;48.872;9.084;2023-03-16T08:38:36;14.40;;;6.80;;
77513;SDS011;66626;48.872;9.084;2023-03-16T08:41:02;14.70;;;6.38;;
77513;SDS011;66626;48.872;9.084;2023-03-16T08:43:28;13.27;;;7.03;;
77513;SDS011;66626;48.872;9.084;2023-03-16T08:45:54;10.98;;;5.00;;
77513;SDS011;66626;48.872;9.084;2023-03-16T08:48:19;11.80;;;5.70;;
77513;SDS011;66626;48.872;9.084;2023-03-16T08:50:46;12.48;;;5.47;;
77513;SDS011;66626;48.872;9.084;2023-03-16T08:53:11;11.68;;;5.57;;
77513;SDS011;66626;48.872;9.084;2023-03-16T08:55:38;10.60;;;5.75;;
77513;SDS011;66626;48.872;9.084;2023-03-16T08:58:05;13.73;;;5.13;;
77513;SDS011;66626;48.872;9.084;2023-03-16T09:00:31;11.63;;;5.50;;
77513;SDS011;66626;48.872;9.084;2023-03-16T09:02:57;13.52;;;5.90;;
77513;SDS011;66626;48.872;9.084;2023-03-16T09:05:22;10.18;;;4.60;;
77513;SDS011;66626;48.872;9.084;2023-03-16T09:07:49;10.65;;;5.90;;
77513;SDS011;66626;48.872;9.084;2023-03-16T09:10:15;10.70;;;5.47;;
77513;SDS011;66626;48.872;9.084;2023-03-16T09:12:41;8.65;;;4.93;;
77513;SDS011;66626;48.872;9.084;2023-03-16T09:15:07;10.38;;;5.03;;
77513;SDS011;66626;48.872;9.084;2023-03-16T09:17:34;10.32;;;5.53;;
77513;SDS011;66626;48.872;9.084;2023-03-16T09:20:00;11.35;;;5.03;;
77513;SDS011;66626;48.872;9.084;2023-03-16T09:22:26;10.63;;;5.30;;
77513;SDS011;66626;48.872;9.084;2023-03-16T09:24:52;9.68;;;5.30;;
77513;SDS011;66626;48.872;9.084;2023-03-16T09:27:17;9.60;;;5.28;;
77513;SDS011;66626;48.872;9.084;2023-03-16T09:29:44;9.43;;;4.43;;
77513;SDS011;66626;48.872;9.084;2023-03-16T09:32:09;9.77;;;4.32;;
77513;SDS011;66626;48.872;9.084;2023-03-16T09:34:35;8.80;;;4.18;;
77513;SDS011;66626;48.872;9.084;2023-03-16T09:37:00;8.85;;;4.32;;
77513;SDS011;66626;48.872;9.084;2023-03-16T09:39:26;6.68;;;3.45;;
77513;SDS011;66626;48.872;9.084;2023-03-16T09:42:00;9.55;;;3.90;;
77513;SDS011;66626;48.872;9.084;2023-03-16T09:47:16;8.52;;;4.85;;
77513;SDS011;66626;48.872;9.084;2023-03-16T09:49:47;13.10;;;5.15;;
77513;SDS011;66626;48.872;9.084;2023-03-16T09:52:22;7.88;;;4.00;;
77513;SDS011;66626;48.872;9.084;2023-03-16T09:54:58;8.15;;;3.20;;
77513;SDS011;66626;48.872;9.084;2023-03-16T10:00:09;7.28;;;3.40;;
77513;SDS011;66626;48.872;9.084;2023-03-16T10:02:57;5.90;;;2.75;;
77513;SDS011;66626;48.872;9.084;2023-03-16T10:05:41;8.18;;;3.85;;
77513;SDS011;66626;48.872;9.084;2023-03-16T10:08:09;6.30;;;3.40;;
77513;SDS011;66626;48.872;9.084;2023-03-16T10:10:52;7.03;;;2.53;;
77513;SDS011;66626;48.872;9.084;2023-03-16T10:13:40;7.07;;;2.70;;
77513;SDS011;66626;48.872;9.084;2023-03-16T10:16:37;6.72;;;2.72;;
77513;SDS011;66626;48.872;9.084;2023-03-16T10:21:43;5.78;;;2.75;;
77513;SDS011;66626;48.872;9.084;2023-03-16T10:24:12;6.57;;;3.03;;
77513;SDS011;66626;48.872;9.084;2023-03-16T10:26:43;9.65;;;3.58;;
77513;SDS011;66626;48.872;9.084;2023-03-16T10:29:15;17.40;;;8.65;;
77513;SDS011;66626;48.872;9.084;2023-03-16T10:31:40;12.82;;;6.97;;
77513;SDS011;66626;48.872;9.084;2023-03-16T10:34:07;8.45;;;3.05;;
77513;SDS011;66626;48.872;9.084;2023-03-16T10:36:33;5.80;;;2.88;;
77513;SDS011;66626;48.872;9.084;2023-03-16T10:41:30;8.10;;;3.88;;
77513;SDS011;66626;48.872;9.084;2023-03-16T10:46:26;6.47;;;3.67;;
77513;SDS011;66626;48.872;9.084;2023-03-16T10:48:56;7.18;;;3.92;;
77513;SDS011;66626;48.872;9.084;2023-03-16T10:51:25;9.20;;;3.85;;
77513;SDS011;66626;48.872;9.084;2023-03-16T10:53:55;6.93;;;3.40;;
77513;SDS011;66626;48.872;9.084;2023-03-16T10:56:22;7.80;;;3.55;;
77513;SDS011;66626;48.872;9.084;2023-03-16T10:58:49;8.05;;;3.13;;
77513;SDS011;66626;48.872;9.084;2023-03-16T11:01:20;6.50;;;3.08;;
77513;SDS011;66626;48.872;9.084;2023-03-16T11:03:48;8.23;;;3.08;;
77513;SDS011;66626;48.872;9.084;2023-03-16T11:06:22;6.88;;;3.20;;
77513;SDS011;66626;48.872;9.084;2023-03-16T11:08:50;6.45;;;2.95;;
77513;SDS011;66626;48.872;9.084;2023-03-16T11:11:17;5.03;;;2.40;;
77513;SDS011;66626;48.872;9.084;2023-03-16T11:13:48;8.57;;;2.70;;
77513;SDS011;66626;48.872;9.084;2023-03-16T11:19:00;6.75;;;3.28;;
77513;SDS011;66626;48.872;9.084;2023-03-16T11:24:19;6.65;;;3.35;;
77513;SDS011;66626;48.872;9.084;2023-03-16T11:26:47;6.53;;;3.22;;
77513;SDS011;66626;48.872;9.084;2023-03-16T11:29:31;6.47;;;3.08;;
77513;SDS011;66626;48.872;9.084;2023-03-16T11:32:09;5.53;;;2.55;;
77513;SDS011;66626;48.872;9.084;2023-03-16T11:34:37;8.13;;;3.25;;
77513;SDS011;66626;48.872;9.084;2023-03-16T11:37:19;6.97;;;3.33;;
77513;SDS011;66626;48.872;9.084;2023-03-16T11:40:12;7.65;;;4.07;;
77513;SDS011;66626;48.872;9.084;2023-03-16T11:45:50;8.45;;;3.95;;
77513;SDS011;66626;48.872;9.084;2023-03-16T11:56:50;6.07;;;3.25;;
77513;SDS011;66626;48.872;9.084;2023-03-16T12:02:32;8.05;;;2.90;;
77513;SDS011;66626;48.872;9.084;2023-03-16T12:13:18;5.70;;;2.75;;
77513;SDS011;66626;48.872;9.084;2023-03-16T12:15:57;5.65;;;2.30;;
77513;SDS011;66626;48.872;9.084;2023-03-16T12:18:29;7.22;;;2.78;;
77513;SDS011;66626;48.872;9.084;2023-03-16T12:21:08;6.75;;;2.60;;
77513;SDS011;66626;48.872;9.084;2023-03-16T12:23:38;5.95;;;2.72;;
77513;SDS011;66626;48.872;9.084;2023-03-16T12:26:05;17.17;;;6.07;;
77513;SDS011;66626;48.872;9.084;2023-03-16T12:28:32;8.60;;;2.60;;
77513;SDS011;66626;48.872;9.084;2023-03-16T12:33:44;6.25;;;2.22;;
77513;SDS011;66626;48.872;9.084;2023-03-16T12:36:23;5.60;;;2.20;;
77513;SDS011;66626;48.872;9.084;2023-03-16T12:47:04;4.07;;;1.90;;
77513;SDS011;66626;48.872;9.084;2023-03-16T12:49:37;5.65;;;2.10;;
77513;SDS011;66626;48.872;9.084;2023-03-16T12:52:07;5.85;;;1.85;;
77513;SDS011;66626;48.872;9.084;2023-03-16T12:54:34;5.35;;;2.13;;
77513;SDS011;66626;48.872;9.084;2023-03-16T12:57:00;5.97;;;2.40;;
77513;SDS011;66626;48.872;9.084;2023-03-16T12:59:34;5.53;;;2.35;;
77513;SDS011;66626;48.872;9.084;2023-03-16T13:02:02;4.75;;;2.30;;
77513;SDS011;66626;48.872;9.084;2023-03-16T13:04:31;4.30;;;2.13;;
77513;SDS011;66626;48.872;9.084;2023-03-16T13:07:00;5.03;;;1.98;;
77513;SDS011;66626;48.872;9.084;2023-03-16T13:09:29;4.68;;;1.90;;
77513;SDS011;66626;48.872;9.084;2023-03-16T13:11:56;4.68;;;2.00;;
77513;SDS011;66626;48.872;9.084;2023-03-16T13:14:34;5.20;;;2.65;;
77513;SDS011;66626;48.872;9.084;2023-03-16T13:19:41;5.95;;;2.80;;
77513;SDS011;66626;48.872;9.084;2023-03-16T13:24:58;4.93;;;2.20;;
77513;SDS011;66626;48.872;9.084;2023-03-16T13:27:29;4.28;;;1.98;;
77513;SDS011;66626;48.872;9.084;2023-03-16T13:29:58;4.95;;;2.33;;
77513;SDS011;66626;48.872;9.084;2023-03-16T13:32:25;6.22;;;2.60;;
77513;SDS011;66626;48.872;9.084;2023-03-16T13:34:55;6.82;;;2.55;;
77513;SDS011;66626;48.872;9.084;2023-03-16T13:37:22;10.27;;;2.47;;
77513;SDS011;66626;48.872;9.084;2023-03-16T13:40:00;5.75;;;2.30;;
77513;SDS011;66626;48.872;9.084;2023-03-16T13:42:31;9.63;;;2.60;;
77513;SDS011;66626;48.872;9.084;2023-03-16T13:44:57;6.55;;;2.60;;
77513;SDS011;66626;48.872;9.084;2023-03-16T13:47:29;5.68;;;2.65;;
77513;SDS011;66626;48.872;9.084;2023-03-16T13:49:55;5.85;;;1.98;;
77513;SDS011;66626;48.872;9.084;2023-03-16T13:52:26;6.65;;;2.38;;
77513;SDS011;66626;48.872;9.084;2023-03-16T13:54:53;6.32;;;2.42;;
77513;SDS011;66626;48.872;9.084;2023-03-16T13:57:21;5.90;;;2.50;;
77513;SDS011;66626;48.872;9.084;2023-03-16T13:59:49;5.95;;;2.85;;
77513;SDS011;66626;48.872;9.084;2023-03-16T14:02:18;5.22;;;2.40;;
77513;SDS011;66626;48.872;9.084;2023-03-16T14:04:44;6.78;;;2.90;;
77513;SDS011;66626;48.872;9.084;2023-03-16T14:07:15;6.05;;;2.53;;
77513;SDS011;66626;48.872;9.084;2023-03-16T14:09:42;7.65;;;2.80;;
77513;SDS011;66626;48.872;9.084;2023-03-16T14:12:16;5.93;;;2.58;;
77513;SDS011;66626;48.872;9.084;2023-03-16T14:14:45;6.38;;;2.90;;
77513;SDS011;66626;48.872;9.084;2023-03-16T14:17:17;6.93;;;3.00;;
77513;SDS011;66626;48.872;9.084;2023-03-16T14:19:51;5.63;;;2.40;;
77513;SDS011;66626;48.872;9.084;2023-03-16T14:22:54;5.68;;;2.70;;
77513;SDS011;66626;48.872;9.084;2023-03-16T14:25:19;4.90;;;2.20;;
77513;SDS011;66626;48.872;9.084;2023-03-16T14:27:47;4.88;;;2.10;;
77513;SDS011;66626;48.872;9.084;2023-03-16T14:30:22;6.55;;;2.30;;
77513;SDS011;66626;48.872;9.084;2023-03-16T14:32:55;8.13;;;2.42;;
77513;SDS011;66626;48.872;9.084;2023-03-16T14:35:26;7.82;;;2.97;;
77513;SDS011;66626;48.872;9.084;2023-03-16T14:37:53;7.13;;;2.20;;
77513;SDS011;66626;48.872;9.084;2023-03-16T14:42:48;5.15;;;2.60;;
77513;SDS011;66626;48.872;9.084;2023-03-16T14:45:14;5.28;;;2.45;;
77513;SDS011;66626;48.872;9.084;2023-03-16T14:47:41;5.90;;;2.30;;
77513;SDS011;66626;48.872;9.084;2023-03-16T14:50:11;4.78;;;1.92;;
77513;SDS011;66626;48.872;9.084;2023-03-16T14:52:39;6.53;;;2.33;;
77513;SDS011;66626;48.872;9.084;2023-03-16T14:55:15;18.60;;;8.50;;
77513;SDS011;66626;48.872;9.084;2023-03-16T14:57:41;6.13;;;2.33;;
77513;SDS011;66626;48.872;9.084;2023-03-16T15:00:09;5.90;;;3.00;;
77513;SDS011;66626;48.872;9.084;2023-03-16T15:02:37;7.15;;;2.13;;
77513;SDS011;66626;48.872;9.084;2023-03-16T15:05:04;5.20;;;1.80;;
77513;SDS011;66626;48.872;9.084;2023-03-16T15:07:31;6.03;;;2.15;;
77513;SDS011;66626;48.872;9.084;2023-03-16T15:10:00;5.53;;;2.03;;
77513;SDS011;66626;48.872;9.084;2023-03-16T15:12:31;4.93;;;2.17;;
77513;SDS011;66626;48.872;9.084;2023-03-16T15:14:58;5.95;;;2.42;;
77513;SDS011;66626;48.872;9.084;2023-03-16T15:17:40;6.80;;;2.38;;
77513;SDS011;66626;48.872;9.084;2023-03-16T15:20:08;8.55;;;2.42;;
77513;SDS011;66626;48.872;9.084;2023-03-16T15:22:36;6.63;;;2.60;;
77513;SDS011;66626;48.872;9.084;2023-03-16T15:28:02;4.93;;;2.35;;
77513;SDS011;66626;48.872;9.084;2023-03-16T15:30:30;5.05;;;2.35;;
77513;SDS011;66626;48.872;9.084;2023-03-16T15:32:55;8.63;;;2.80;;
77513;SDS011;66626;48.872;9.084;2023-03-16T15:35:20;6.03;;;2.20;;
77513;SDS011;66626;48.872;9.084;2023-03-16T15:37:46;5.97;;;2.28;;
77513;SDS011;66626;48.872;9.084;2023-03-16T15:42:44;4.53;;;2.00;;
77513;SDS011;66626;48.872;9.084;2023-03-16T15:45:11;6.13;;;2.55;;
77513;SDS011;66626;48.872;9.084;2023-03-16T15:47:38;6.28;;;2.65;;
77513;SDS011;66626;48.872;9.084;2023-03-16T15:50:05;5.75;;;2.53;;
77513;SDS011;66626;48.872;9.084;2023-03-16T15:52:32;8.85;;;3.35;;
77513;SDS011;66626;48.872;9.084;2023-03-16T15:54:58;6.25;;;2.80;;
77513;SDS011;66626;48.872;9.084;2023-03-16T15:57:28;4.75;;;2.33;;